Time;durP1;ratioP1;P1;durP2;ratioP2;P2;SDS_P1;SDS_P2;PMS_P1;PMS_P2;Temp;Humidity;BMP_temperature;BMP_pressure;BME280_temperature;BME280_humidity;BME280_pressure;Samples;Min_cycle;Max_cycle;Signal;HPM_P1;HPM_P2
2021/04/12 00:00:10;;;;;;;4.03;1.50;;;3.30;91.40;;;;;;6215006;23;20021;-81
2021/04/12 00:02:45;;;;;;;6.28;1.92;;;3.30;91.50;;;;;;6215200;23;20017;-82
2021/04/12 00:05:20;;;;;;;5.30;1.63;;;3.20;91.50;;;;;;6214646;23;20527;-81
2021/04/12 00:08:04;;;;;;;5.13;1.80;;;3.20;91.50;;;;;;6215906;23;20016;-81
2021/04/12 00:10:56;;;;;;;4.25;1.50;;;3.20;91.50;;;;;;6214625;23;20504;-81
2021/04/12 00:13:35;;;;;;;5.93;1.80;;;3.10;91.20;;;;;;6214131;23;20020;-81
2021/04/12 00:16:10;;;;;;;5.57;1.65;;;3.10;91.30;;;;;;6215606;23;20021;-80
2021/04/12 00:18:47;;;;;;;5.60;1.50;;;3.10;91.30;;;;;;6214483;23;20024;-81
2021/04/12 00:21:48;;;;;;;4.90;1.50;;;3.10;91.30;;;;;;6212568;23;20019;-81
2021/04/12 00:24:48;;;;;;;4.22;1.48;;;3.10;91.40;;;;;;6179178;23;20025;-81
2021/04/12 00:27:19;;;;;;;5.13;1.67;;;3.00;91.20;;;;;;6135112;23;20020;-81
2021/04/12 00:29:58;;;;;;;6.10;1.73;;;3.00;91.50;;;;;;6215576;23;20024;-81
2021/04/12 00:32:49;;;;;;;5.63;2.00;;;3.00;91.50;;;;;;6214534;23;20021;-81
2021/04/12 00:35:25;;;;;;;5.20;1.80;;;3.00;91.60;;;;;;6214196;23;20024;-81
2021/04/12 00:38:13;;;;;;;5.43;1.83;;;3.00;91.70;;;;;;6214898;23;20020;-81
2021/04/12 00:41:08;;;;;;;3.97;1.60;;;3.00;91.70;;;;;;6214807;23;20023;-82
2021/04/12 00:43:52;;;;;;;4.47;1.52;;;3.00;91.70;;;;;;6215257;23;20268;-81
2021/04/12 00:46:27;;;;;;;3.35;1.42;;;2.90;91.80;;;;;;6215202;23;20020;-81
2021/04/12 00:49:19;;;;;;;4.28;1.60;;;2.90;91.80;;;;;;6214692;23;20394;-81
2021/04/12 00:52:12;;;;;;;3.63;1.55;;;2.90;91.80;;;;;;6215528;23;20028;-81
2021/04/12 00:55:01;;;;;;;4.68;1.52;;;2.90;91.80;;;;;;6214097;23;20087;-81
2021/04/12 00:57:44;;;;;;;3.45;1.50;;;2.80;91.70;;;;;;6214859;23;20024;-81
2021/04/12 01:00:18;;;;;;;4.13;1.48;;;2.80;91.60;;;;;;6214712;23;20341;-81
2021/04/12 01:03:16;;;;;;;4.57;1.67;;;2.80;91.70;;;;;;6214685;23;20035;-82
2021/04/12 01:06:08;;;;;;;5.53;1.60;;;2.80;91.60;;;;;;6213866;23;20453;-81
2021/04/12 01:09:03;;;;;;;5.40;1.60;;;2.80;91.50;;;;;;6214363;23;20012;-81
2021/04/12 01:11:37;;;;;;;5.05;1.70;;;2.70;91.50;;;;;;6214937;23;20026;-81
2021/04/12 01:14:37;;;;;;;4.55;1.73;;;2.70;91.60;;;;;;6215252;23;20017;-81
2021/04/12 01:17:25;;;;;;;7.88;1.95;;;2.70;91.60;;;;;;6214040;23;20027;-80
2021/04/12 01:20:15;;;;;;;4.40;1.75;;;2.70;91.60;;;;;;6214976;23;20017;-81
2021/04/12 01:23:15;;;;;;;5.13;2.00;;;2.70;91.60;;;;;;6212972;23;20850;-81
2021/04/12 01:26:20;;;;;;;5.45;1.70;;;2.60;91.50;;;;;;6215274;23;20032;-81
2021/04/12 01:29:12;;;;;;;5.05;1.60;;;2.60;91.50;;;;;;6211275;23;20095;-81
2021/04/12 01:32:42;;;;;;;6.15;2.08;;;2.60;91.60;;;;;;6213565;23;20013;-81
2021/04/12 01:35:40;;;;;;;5.47;1.98;;;2.50;91.50;;;;;;6115638;23;20018;-81
2021/04/12 01:38:27;;;;;;;5.38;2.03;;;2.50;91.70;;;;;;6122001;23;20037;-81
2021/04/12 01:41:22;;;;;;;4.32;1.70;;;2.50;91.70;;;;;;6200067;23;20091;-81
2021/04/12 01:44:05;;;;;;;6.65;1.60;;;2.50;91.70;;;;;;6214177;23;20021;-81
2021/04/12 01:47:01;;;;;;;5.35;1.60;;;2.40;91.60;;;;;;6214428;23;20125;-81
2021/04/12 01:50:06;;;;;;;5.13;1.90;;;2.40;91.60;;;;;;6209688;23;20016;-81
2021/04/12 01:53:12;;;;;;;5.72;1.75;;;2.40;91.50;;;;;;6213979;23;20051;-82
2021/04/12 01:55:45;;;;;;;4.97;1.92;;;2.40;91.50;;;;;;6146674;23;20361;-81
2021/04/12 01:58:20;;;;;;;;;;;2.40;91.60;;;;;;6214508;23;20021;-80
2021/04/12 02:01:16;;;;;;;7.30;1.70;;;2.30;90.80;;;;;;6215385;23;19919;-81
2021/04/12 02:03:53;;;;;;;5.43;1.90;;;2.30;91.70;;;;;;6214744;23;20465;-81
2021/04/12 02:06:34;;;;;;;5.07;1.73;;;2.30;91.70;;;;;;6214789;23;20093;-81
2021/04/12 02:09:05;;;;;;;4.93;1.95;;;2.30;91.70;;;;;;6216666;23;20043;-81
2021/04/12 02:11:34;;;;;;;6.88;2.00;;;2.30;91.80;;;;;;6216957;23;20015;-81
2021/04/12 02:14:29;;;;;;;4.72;1.63;;;2.30;91.90;;;;;;6216061;23;20025;-82
2021/04/12 02:17:10;;;;;;;6.65;2.30;;;2.40;92.00;;;;;;6216582;23;20337;-81
2021/04/12 02:19:46;;;;;;;;;;;2.40;92.00;;;;;;6216485;23;20099;-80
2021/04/12 02:22:49;;;;;;;5.90;1.80;;;2.30;91.10;;;;;;6216323;23;19916;-81
2021/04/12 02:25:40;;;;;;;5.57;1.83;;;2.30;91.80;;;;;;6216362;23;20016;-81
2021/04/12 02:28:12;;;;;;;5.28;1.75;;;2.30;91.90;;;;;;6215907;23;20322;-80
2021/04/12 02:30:53;;;;;;;6.43;1.95;;;2.30;91.90;;;;;;6216515;23;20051;-80
2021/04/12 02:33:42;;;;;;;6.00;2.00;;;2.30;92.00;;;;;;6215580;23;20417;-81
2021/04/12 02:36:21;;;;;;;5.38;1.75;;;2.30;92.00;;;;;;6216692;23;20012;-80
2021/04/12 02:39:01;;;;;;;5.40;1.80;;;2.30;92.00;;;;;;6216370;23;20453;-80
2021/04/12 02:41:51;;;;;;;4.13;1.67;;;2.30;91.80;;;;;;6215450;23;20013;-80
2021/04/12 02:44:53;;;;;;;4.68;1.65;;;2.30;91.80;;;;;;6216290;23;20040;-81
2021/04/12 02:47:38;;;;;;;6.00;1.70;;;2.20;91.80;;;;;;6215246;23;20164;-81
2021/04/12 02:50:45;;;;;;;4.32;1.45;;;2.20;91.90;;;;;;6216685;23;20095;-80
2021/04/12 02:53:44;;;;;;;6.38;1.50;;;2.20;91.80;;;;;;6181219;23;20017;-81
2021/04/12 02:56:29;;;;;;;5.28;1.50;;;2.20;91.80;;;;;;6215274;23;20095;-81
2021/04/12 02:59:10;;;;;;;6.72;1.98;;;2.10;91.70;;;;;;6216096;23;20571;-81
2021/04/12 03:02:04;;;;;;;3.55;1.52;;;2.10;91.70;;;;;;6214955;23;20021;-80
2021/04/12 03:04:48;;;;;;;;;;;2.10;91.80;;;;;;6216453;23;20013;-80
2021/04/12 03:07:45;;;;;;;5.90;1.80;;;2.00;91.00;;;;;;6214876;23;19916;-81
2021/04/12 03:10:30;;;;;;;3.55;1.40;;;2.00;91.60;;;;;;6214260;23;20047;-81
2021/04/12 03:13:23;;;;;;;6.25;1.80;;;2.00;91.70;;;;;;6215861;23;20024;-81
2021/04/12 03:16:08;;;;;;;4.60;1.50;;;1.90;91.70;;;;;;6214444;23;20028;-81
2021/04/12 03:18:58;;;;;;;5.82;1.70;;;1.90;91.70;;;;;;6215497;23;20020;-82
2021/04/12 03:21:53;;;;;;;5.20;1.73;;;1.90;91.70;;;;;;6216430;23;20016;-81
2021/04/12 03:24:28;;;;;;;4.00;1.48;;;1.90;91.80;;;;;;6215057;23;20116;-80
2021/04/12 03:27:12;;;;;;;4.93;1.60;;;1.80;91.70;;;;;;6215405;23;20461;-80
2021/04/12 03:30:09;;;;;;;6.68;1.60;;;1.80;91.60;;;;;;6215173;23;20051;-80
2021/04/12 03:32:57;;;;;;;6.35;1.33;;;1.80;91.70;;;;;;6216130;23;20024;-80
2021/04/12 03:35:39;;;;;;;4.10;1.50;;;1.80;91.70;;;;;;6215858;23;20012;-80
2021/04/12 03:38:18;;;;;;;4.43;1.73;;;1.70;91.60;;;;;;6214876;23;20445;-79
2021/04/12 03:41:11;;;;;;;5.63;1.60;;;1.70;91.60;;;;;;6215940;23;20040;-79
2021/04/12 03:44:26;;;;;;;5.05;1.75;;;1.70;91.60;;;;;;6215535;23;20047;-80
2021/04/12 03:47:06;;;;;;;5.72;1.60;;;1.70;91.80;;;;;;6216079;23;20066;-80
2021/04/12 03:49:57;;;;;;;3.72;1.30;;;1.70;91.90;;;;;;6215869;23;20092;-80
2021/04/12 03:52:48;;;;;;;3.50;1.42;;;1.70;91.90;;;;;;6214991;23;20094;-80
2021/04/12 03:55:14;;;;;;;3.53;1.50;;;1.70;91.90;;;;;;6215925;23;20021;-80
2021/04/12 03:58:00;;;;;;;5.00;1.60;;;1.70;91.90;;;;;;6214957;23;20021;-80
2021/04/12 04:00:49;;;;;;;5.28;1.50;;;1.70;92.00;;;;;;6215794;23;20086;-80
2021/04/12 04:03:40;;;;;;;5.22;1.60;;;1.70;92.00;;;;;;6216119;23;20029;-81
2021/04/12 04:06:20;;;;;;;5.10;1.40;;;1.70;92.00;;;;;;6214816;23;20344;-81
2021/04/12 04:08:53;;;;;;;3.88;1.42;;;1.70;92.00;;;;;;6215904;23;20075;-80
2021/04/12 04:11:25;;;;;;;4.75;1.33;;;1.60;91.90;;;;;;6214074;23;20510;-80
2021/04/12 04:14:05;;;;;;;3.80;1.40;;;1.70;91.90;;;;;;6215960;23;20026;-80
2021/04/12 04:16:48;;;;;;;3.63;1.35;;;1.60;91.80;;;;;;6214808;23;20028;-79
2021/04/12 04:19:48;;;;;;;4.40;1.33;;;1.60;91.70;;;;;;6213756;23;20020;-81
2021/04/12 04:22:29;;;;;;;4.32;1.33;;;1.60;91.60;;;;;;6213723;23;20073;-81
2021/04/12 04:25:21;;;;;;;4.85;1.23;;;1.60;91.60;;;;;;6214612;23;20021;-80
2021/04/12 04:28:14;;;;;;;4.05;1.50;;;1.60;91.50;;;;;;6215682;23;20108;-80
2021/04/12 04:30:54;;;;;;;6.88;1.35;;;1.50;91.50;;;;;;6215858;23;20016;-80
2021/04/12 04:33:32;;;;;;;5.43;1.30;;;1.50;91.40;;;;;;6214486;23;20032;-80
2021/04/12 04:36:33;;;;;;;3.15;1.20;;;1.50;91.40;;;;;;6215728;23;20023;-80
2021/04/12 04:39:39;;;;;;;3.88;1.10;;;1.50;91.40;;;;;;6216039;23;20024;-81
2021/04/12 04:42:18;;;;;;;4.25;1.20;;;1.50;91.40;;;;;;6215497;23;20028;-80
2021/04/12 04:45:12;;;;;;;5.93;1.30;;;1.50;91.40;;;;;;6215424;23;20457;-80
2021/04/12 04:47:57;;;;;;;5.50;1.48;;;1.50;91.40;;;;;;6214277;23;20088;-81
2021/04/12 04:50:35;;;;;;;;;;;1.40;91.40;;;;;;6214905;23;20445;-79
2021/04/12 04:53:27;;;;;;;4.20;1.40;;;1.40;90.80;;;;;;6215490;23;19954;-81
2021/04/12 04:55:56;;;;;;;3.33;1.15;;;1.40;91.50;;;;;;6210704;23;20036;-80
2021/04/12 04:58:49;;;;;;;3.42;1.38;;;1.40;91.60;;;;;;6214524;23;20359;-80
2021/04/12 05:01:51;;;;;;;6.03;1.40;;;1.40;91.60;;;;;;6214074;23;20370;-80
2021/04/12 05:04:47;;;;;;;4.78;1.05;;;1.40;91.60;;;;;;6215269;23;20067;-80
2021/04/12 05:07:31;;;;;;;5.72;1.35;;;1.40;91.90;;;;;;6213572;23;20342;-80
2021/04/12 05:10:06;;;;;;;4.53;0.90;;;1.40;91.50;;;;;;6215431;23;20377;-80
2021/04/12 05:13:16;;;;;;;4.93;1.00;;;1.40;91.60;;;;;;6214617;23;20350;-80
2021/04/12 05:16:14;;;;;;;2.95;1.13;;;1.40;91.60;;;;;;6214705;23;20020;-80
2021/04/12 05:19:04;;;;;;;3.97;1.10;;;1.30;91.50;;;;;;6214614;23;20078;-80
2021/04/12 05:21:44;;;;;;;2.25;0.90;;;1.30;91.50;;;;;;6213860;23;20481;-80
2021/04/12 05:24:36;;;;;;;4.03;1.00;;;1.30;91.50;;;;;;6213563;23;20385;-81
2021/04/12 05:27:38;;;;;;;5.97;1.08;;;1.30;91.50;;;;;;6214848;23;20016;-78
2021/04/12 05:30:16;;;;;;;2.72;1.10;;;1.30;91.60;;;;;;6213313;23;20016;-76
2021/04/12 05:33:12;;;;;;;3.78;1.23;;;1.30;91.60;;;;;;6214975;23;20039;-76
2021/04/12 05:36:08;;;;;;;3.58;1.00;;;1.30;91.70;;;;;;6214338;23;20074;-75
2021/04/12 05:38:55;;;;;;;4.60;1.30;;;1.30;91.70;;;;;;6215192;23;20024;-76
2021/04/12 05:41:51;;;;;;;6.15;1.23;;;1.30;91.70;;;;;;6214505;23;20020;-76
2021/04/12 05:44:37;;;;;;;3.83;0.90;;;1.30;91.60;;;;;;6212422;23;20408;-80
2021/04/12 05:47:34;;;;;;;3.08;1.17;;;1.30;91.50;;;;;;6214353;23;20089;-81
2021/04/12 05:50:11;;;;;;;4.75;1.30;;;1.30;91.50;;;;;;6210701;23;20016;-80
2021/04/12 05:53:02;;;;;;;3.17;0.98;;;1.30;91.40;;;;;;6212509;23;20036;-80
2021/04/12 05:55:57;;;;;;;4.78;1.17;;;1.30;91.40;;;;;;6213768;23;20457;-80
2021/04/12 05:58:30;;;;;;;3.58;1.00;;;1.30;91.40;;;;;;6213875;23;20017;-80
2021/04/12 06:01:18;;;;;;;2.80;1.10;;;1.30;91.40;;;;;;6213867;23;20013;-81
2021/04/12 06:04:16;;;;;;;3.92;1.00;;;1.30;91.40;;;;;;6213269;23;20017;-79
2021/04/12 06:07:17;;;;;;;4.68;1.20;;;1.20;91.20;;;;;;6214843;23;20021;-82
2021/04/12 06:10:30;;;;;;;2.58;1.10;;;1.30;91.20;;;;;;6214211;23;20449;-79
2021/04/12 06:13:02;;;;;;;6.38;1.38;;;1.30;91.30;;;;;;6191791;23;20099;-78
2021/04/12 06:15:58;;;;;;;5.05;1.17;;;1.30;91.30;;;;;;6213750;23;20421;-78
2021/04/12 06:18:42;;;;;;;3.33;1.10;;;1.40;91.30;;;;;;6212330;23;20029;-78
2021/04/12 06:21:32;;;;;;;3.75;1.30;;;1.40;91.20;;;;;;6214109;23;20017;-79
2021/04/12 06:24:26;;;;;;;4.10;1.35;;;1.50;91.40;;;;;;6214152;23;20031;-79
2021/04/12 06:27:02;;;;;;;;;;;1.50;91.30;;;;;;6211646;23;20035;-78
2021/04/12 06:29:53;;;;;;;3.95;1.13;;;1.50;90.90;;;;;;6214211;23;19942;-79
2021/04/12 06:32:39;;;;;;;4.97;1.42;;;1.60;91.20;;;;;;6213792;23;20020;-79
2021/04/12 06:35:23;;;;;;;4.63;1.20;;;1.70;91.30;;;;;;6214090;23;20016;-79
2021/04/12 06:37:54;;;;;;;4.05;1.35;;;1.80;91.30;;;;;;6186594;23;20021;-79
2021/04/12 06:40:50;;;;;;;3.38;1.10;;;1.90;91.30;;;;;;6211869;23;20016;-79
2021/04/12 06:43:26;;;;;;;5.18;1.50;;;1.90;91.30;;;;;;6214160;23;20067;-80
2021/04/12 06:46:43;;;;;;;2.50;1.13;;;2.00;91.40;;;;;;6211096;23;20013;-80
2021/04/12 06:49:33;;;;;;;3.38;1.08;;;2.20;91.40;;;;;;6213855;23;20016;-80
2021/04/12 06:52:17;;;;;;;4.53;1.25;;;2.30;91.30;;;;;;6212472;23;20393;-80
2021/04/12 06:55:05;;;;;;;4.80;1.42;;;2.30;91.30;;;;;;6213936;23;20076;-80
2021/04/12 06:57:40;;;;;;;3.22;1.30;;;2.50;91.30;;;;;;6212408;23;20021;-79
2021/04/12 07:00:54;;;;;;;5.80;1.20;;;2.60;91.20;;;;;;6213880;23;20016;-81
2021/04/12 07:03:57;;;;;;;4.90;1.10;;;2.70;91.20;;;;;;6216105;23;20027;-81
2021/04/12 07:06:26;;;;;;;4.22;1.10;;;2.80;91.10;;;;;;6215715;23;20021;-80
2021/04/12 07:09:26;;;;;;;4.63;1.13;;;2.90;91.10;;;;;;6215218;23;20020;-80
2021/04/12 07:12:32;;;;;;;6.80;1.30;;;3.10;91.00;;;;;;6215478;23;20055;-79
2021/04/12 07:15:19;;;;;;;7.80;1.17;;;3.20;90.90;;;;;;6214967;23;20476;-80
2021/04/12 07:18:09;;;;;;;4.35;1.00;;;3.30;90.80;;;;;;6212051;23;20107;-80
2021/04/12 07:21:06;;;;;;;4.78;1.10;;;3.40;90.70;;;;;;6215926;23;20095;-80
2021/04/12 07:23:57;;;;;;;7.25;1.10;;;3.60;90.60;;;;;;6212429;23;20467;-80
2021/04/12 07:27:09;;;;;;;5.78;1.23;;;3.70;90.60;;;;;;6214866;23;20441;-80
2021/04/12 07:30:06;;;;;;;7.28;1.42;;;3.80;90.20;;;;;;6212672;23;20452;-80
2021/04/12 07:33:03;;;;;;;7.47;1.23;;;4.00;89.70;;;;;;6214428;23;20021;-80
2021/04/12 07:35:48;;;;;;;6.72;1.33;;;4.20;89.50;;;;;;6204839;23;20382;-80
2021/04/12 07:38:53;;;;;;;8.30;1.40;;;4.30;88.20;;;;;;6214931;23;20028;-80
2021/04/12 07:41:59;;;;;;;6.65;1.20;;;4.50;87.50;;;;;;6215204;23;20027;-80
2021/04/12 07:45:11;;;;;;;8.35;1.20;;;4.60;87.20;;;;;;6214449;23;20028;-80
2021/04/12 07:47:55;;;;;;;3.78;1.05;;;4.70;86.90;;;;;;6214832;23;20017;-80
2021/04/12 07:51:01;;;;;;;5.22;1.10;;;4.80;86.40;;;;;;6214089;23;20315;-80
2021/04/12 07:53:54;;;;;;;6.95;1.33;;;4.90;86.10;;;;;;6207351;23;20040;-81
2021/04/12 07:56:59;;;;;;;;;;;5.00;86.20;;;;;;6214314;23;20016;-79
2021/04/12 08:02:23;;;;;;;8.57;1.40;;;5.20;86.20;;;;;;6240932;23;20018;-80
2021/04/12 08:05:09;;;;;;;6.32;1.00;;;5.30;85.80;;;;;;6244015;23;20376;-80
2021/04/12 08:08:17;;;;;;;5.55;1.13;;;5.40;85.30;;;;;;6245667;23;20388;-80
2021/04/12 08:11:05;;;;;;;7.20;1.27;;;5.50;84.70;;;;;;6244597;23;20031;-81
2021/04/12 08:14:08;;;;;;;5.95;1.10;;;5.60;84.40;;;;;;6241655;23;20495;-80
2021/04/12 08:17:14;;;;;;;7.70;1.35;;;5.70;83.50;;;;;;6245628;23;20361;-80
2021/04/12 08:20:02;;;;;;;9.63;1.20;;;5.70;83.30;;;;;;6244490;23;20020;-80
2021/04/12 08:22:45;;;;;;;5.22;0.88;;;5.70;83.00;;;;;;6245479;23;20016;-80
2021/04/12 08:25:55;;;;;;;8.43;1.10;;;5.80;82.50;;;;;;6243137;23;20012;-81
2021/04/12 08:28:39;;;;;;;7.57;0.98;;;5.70;82.00;;;;;;6244375;22;20016;-80
2021/04/12 08:31:42;;;;;;;4.10;0.90;;;5.70;82.00;;;;;;6245338;23;20071;-80
2021/04/12 08:34:26;;;;;;;4.07;0.80;;;5.70;81.40;;;;;;6245424;23;20016;-80
2021/04/12 08:36:54;;;;;;;5.22;0.90;;;5.70;82.00;;;;;;6245537;23;20027;-80
2021/04/12 08:39:58;;;;;;;4.82;1.00;;;5.70;82.10;;;;;;6244332;23;20043;-80
2021/04/12 08:43:06;;;;;;;6.80;0.90;;;5.80;82.20;;;;;;6244598;23;20013;-79
2021/04/12 08:46:04;;;;;;;6.72;0.85;;;5.90;82.00;;;;;;6243253;23;20333;-81
2021/04/12 08:49:06;;;;;;;8.65;1.20;;;6.10;81.30;;;;;;6187497;23;20019;-82
2021/04/12 08:52:02;;;;;;;5.00;0.80;;;6.20;80.40;;;;;;6244411;23;20457;-82
2021/04/12 08:54:58;;;;;;;6.70;1.05;;;6.30;79.50;;;;;;6240455;23;20637;-83
2021/04/12 08:57:56;;;;;;;4.53;0.80;;;6.50;79.10;;;;;;6239976;23;20016;-79
2021/04/12 09:00:53;;;;;;;7.00;0.70;;;6.60;76.90;;;;;;6240063;23;20376;-80
2021/04/12 09:03:30;;;;;;;6.50;0.90;;;6.70;77.90;;;;;;6243883;23;20030;-81
2021/04/12 09:06:15;;;;;;;5.45;0.85;;;6.70;77.90;;;;;;6245281;23;20035;-81
2021/04/12 09:09:05;;;;;;;3.97;0.82;;;6.80;77.00;;;;;;6243935;23;20016;-81
2021/04/12 09:11:52;;;;;;;6.90;0.95;;;7.00;77.00;;;;;;6245158;23;20020;-81
2021/04/12 09:14:47;;;;;;;4.35;0.68;;;7.10;76.30;;;;;;6244057;23;20087;-81
2021/04/12 09:17:34;;;;;;;3.70;0.80;;;7.10;77.10;;;;;;6244742;23;20027;-80
2021/04/12 09:20:15;;;;;;;1.95;0.50;;;7.00;77.80;;;;;;6245291;23;20016;-81
2021/04/12 09:23:18;;;;;;;5.65;0.50;;;6.90;77.70;;;;;;6244326;23;20069;-80
2021/04/12 09:25:56;;;;;;;2.45;0.40;;;6.80;77.60;;;;;;6245141;23;20016;-81
2021/04/12 09:28:43;;;;;;;3.42;0.82;;;6.70;78.30;;;;;;6243987;23;20039;-81
2021/04/12 09:31:38;;;;;;;2.25;0.43;;;6.60;78.90;;;;;;6244718;23;20019;-81
2021/04/12 09:34:33;;;;;;;3.58;0.47;;;6.60;78.80;;;;;;6245219;23;20345;-81
2021/04/12 09:37:11;;;;;;;3.00;0.60;;;6.60;80.20;;;;;;6244104;23;20012;-81
2021/04/12 09:40:06;;;;;;;3.83;0.50;;;6.60;80.70;;;;;;6245216;23;20024;-81
2021/04/12 09:43:17;;;;;;;2.92;0.70;;;6.70;80.60;;;;;;6243631;23;20449;-81
2021/04/12 09:46:24;;;;;;;4.18;0.77;;;6.70;81.10;;;;;;6245384;23;20020;-81
2021/04/12 09:49:17;;;;;;;3.85;0.95;;;6.80;80.00;;;;;;6243477;23;20479;-80
2021/04/12 09:52:02;;;;;;;4.93;0.73;;;6.90;79.20;;;;;;6239835;23;20021;-81
2021/04/12 09:54:44;;;;;;;3.63;0.70;;;7.00;78.50;;;;;;6242877;23;20060;-81
2021/04/12 09:57:40;;;;;;;3.95;0.60;;;7.00;77.00;;;;;;6242747;23;20066;-81
2021/04/12 10:00:47;;;;;;;6.03;0.70;;;7.10;75.90;;;;;;6244521;23;20021;-82
2021/04/12 10:04:02;;;;;;;4.82;0.82;;;7.10;75.30;;;;;;6242338;23;20032;-82
2021/04/12 10:06:33;;;;;;;4.93;0.68;;;7.20;74.50;;;;;;6137805;23;20023;-80
2021/04/12 10:09:12;;;;;;;3.20;0.65;;;7.20;74.20;;;;;;6245111;23;20012;-81
2021/04/12 10:11:44;;;;;;;4.13;0.70;;;7.20;72.30;;;;;;6244040;23;20039;-82
2021/04/12 10:22:05;;;;;;;4.53;0.70;;;7.40;72.30;;;;;;6243804;23;20035;-82
2021/04/12 10:29:12;;;;;;;3.97;0.70;;;7.60;71.30;;;;;;6118339;23;20050;-83
2021/04/12 10:31:43;;;;;;;3.15;0.82;;;7.70;69.70;;;;;;6120613;23;20026;-84
2021/04/12 10:34:35;;;;;;;3.17;0.80;;;7.80;70.30;;;;;;6245867;23;20008;-83
2021/04/12 10:37:29;;;;;;;6.30;0.80;;;7.90;71.30;;;;;;6245676;23;20437;-81
2021/04/12 10:46:31;;;;;;;4.28;0.90;;;8.20;70.40;;;;;;6220609;23;20099;-81
2021/04/12 10:49:11;;;;;;;6.53;0.85;;;8.20;70.60;;;;;;6244886;23;20020;-82
2021/04/12 10:52:03;;;;;;;5.22;0.82;;;8.20;71.50;;;;;;6246255;23;20042;-83
2021/04/12 10:55:02;;;;;;;7.10;0.82;;;8.00;73.30;;;;;;6245530;23;20657;-82
2021/04/12 10:57:41;;;;;;;3.63;0.60;;;7.90;75.20;;;;;;6245672;23;20063;-80
2021/04/12 11:00:50;;;;;;;4.80;0.77;;;7.80;77.00;;;;;;6244661;23;20024;-81
2021/04/12 11:03:37;;;;;;;3.13;0.68;;;7.70;78.10;;;;;;6223643;23;20086;-81
2021/04/12 11:06:10;;;;;;;2.63;0.77;;;7.60;79.50;;;;;;6243847;23;20078;-80
2021/04/12 11:08:50;;;;;;;3.95;0.80;;;7.60;80.60;;;;;;6239098;23;20030;-81
2021/04/12 11:11:26;;;;;;;3.75;0.63;;;7.60;80.50;;;;;;6245775;23;20095;-81
2021/04/12 11:14:19;;;;;;;2.40;0.60;;;7.60;81.20;;;;;;6245572;23;20114;-80
2021/04/12 11:16:50;;;;;;;4.25;0.60;;;7.70;82.40;;;;;;6246783;23;20018;-79
2021/04/12 11:19:57;;;;;;;5.63;0.93;;;7.70;83.40;;;;;;6244947;23;20020;-79
2021/04/12 11:22:41;;;;;;;2.80;0.60;;;7.80;82.80;;;;;;6122096;23;20018;-80
2021/04/12 11:25:26;;;;;;;5.60;0.90;;;7.80;81.90;;;;;;6236631;23;20085;-83
2021/04/12 11:28:06;;;;;;;5.93;0.77;;;7.80;81.70;;;;;;6245099;23;20016;-82
2021/04/12 11:30:40;;;;;;;6.43;0.90;;;7.80;81.10;;;;;;6245620;23;20016;-80
2021/04/12 11:33:30;;;;;;;3.08;0.60;;;7.80;81.20;;;;;;6245528;23;20099;-79
2021/04/12 11:36:14;;;;;;;4.10;0.65;;;7.90;80.50;;;;;;6245264;23;20013;-82
2021/04/12 11:39:00;;;;;;;4.55;0.80;;;7.90;80.50;;;;;;6239529;23;20070;-81
2021/04/12 11:42:05;;;;;;;6.35;0.73;;;8.00;79.50;;;;;;6240204;23;20024;-83
2021/04/12 11:44:43;;;;;;;2.22;0.50;;;8.00;78.30;;;;;;6245586;23;20023;-84
2021/04/12 11:47:24;;;;;;;2.28;0.43;;;7.90;78.00;;;;;;6244672;23;20066;-80
2021/04/12 11:50:08;;;;;;;2.05;0.30;;;7.90;79.00;;;;;;6244347;23;20023;-82
2021/04/12 11:53:08;;;;;;;2.38;0.73;;;7.80;78.50;;;;;;6244636;23;20453;-83
2021/04/12 11:55:54;;;;;;;4.93;1.35;;;7.80;78.10;;;;;;6243342;23;20345;-82
2021/04/12 11:58:29;;;;;;;5.63;1.30;;;7.80;76.80;;;;;;6244440;22;20456;-81
2021/04/12 12:01:21;;;;;;;4.90;0.73;;;7.90;78.10;;;;;;6245772;23;20023;-80
2021/04/12 12:04:13;;;;;;;2.05;0.70;;;7.90;78.40;;;;;;6244817;23;20044;-81
2021/04/12 12:06:47;;;;;;;2.50;0.50;;;8.00;79.60;;;;;;6236992;23;20099;-82
2021/04/12 12:09:31;;;;;;;4.45;0.73;;;8.10;78.20;;;;;;6245156;23;20376;-81
2021/04/12 12:12:01;;;;;;;5.32;0.70;;;8.20;76.80;;;;;;6245262;23;20020;-80
2021/04/12 12:14:36;;;;;;;3.30;0.73;;;8.10;75.50;;;;;;6245193;23;20051;-81
2021/04/12 12:17:04;;;;;;;8.55;0.80;;;8.20;76.20;;;;;;6244568;23;20027;-81
2021/04/12 12:19:51;;;;;;;6.10;0.80;;;8.20;75.80;;;;;;6244435;23;20020;-81
2021/04/12 12:22:55;;;;;;;6.10;0.75;;;8.20;74.80;;;;;;6245232;23;20016;-80
2021/04/12 12:25:39;;;;;;;3.85;0.60;;;8.20;74.70;;;;;;6223597;23;20465;-81
2021/04/12 12:28:09;;;;;;;4.72;0.65;;;8.20;75.00;;;;;;6244977;23;20082;-81
2021/04/12 12:30:50;;;;;;;2.20;0.50;;;8.20;73.80;;;;;;6244572;23;20043;-81
2021/04/12 12:33:26;;;;;;;3.38;0.52;;;8.30;73.60;;;;;;6245475;23;20318;-81
2021/04/12 12:36:37;;;;;;;4.97;0.60;;;8.20;72.90;;;;;;6245109;23;20020;-81
2021/04/12 12:39:12;;;;;;;2.28;0.38;;;8.30;72.90;;;;;;6187141;23;20016;-81
2021/04/12 12:41:43;;;;;;;3.83;0.60;;;8.30;73.60;;;;;;6245630;23;20088;-81
2021/04/12 12:44:13;;;;;;;2.33;0.50;;;8.30;72.90;;;;;;6240345;23;20065;-81
2021/04/12 12:46:46;;;;;;;3.65;0.85;;;8.30;73.90;;;;;;6239799;23;20043;-81
2021/04/12 12:49:31;;;;;;;2.47;0.60;;;8.30;73.80;;;;;;6244631;23;20471;-81
2021/04/12 12:52:11;;;;;;;3.13;0.60;;;8.30;73.00;;;;;;6244563;23;20020;-81
2021/04/12 12:54:42;;;;;;;4.30;0.60;;;8.30;72.70;;;;;;6245159;23;20287;-81
2021/04/12 12:57:17;;;;;;;2.55;0.50;;;8.40;72.00;;;;;;6244788;23;20012;-81
2021/04/12 12:59:56;;;;;;;2.80;0.75;;;8.40;71.70;;;;;;6244138;23;20526;-81
2021/04/12 13:02:29;;;;;;;3.45;0.50;;;8.40;71.40;;;;;;6245095;23;20035;-81
2021/04/12 13:04:59;;;;;;;3.38;0.85;;;8.40;71.40;;;;;;6243775;23;20023;-81
2021/04/12 13:07:29;;;;;;;2.60;0.60;;;8.40;71.90;;;;;;6243845;23;20024;-81
2021/04/12 13:10:02;;;;;;;2.45;0.50;;;8.40;70.90;;;;;;6243892;23;20091;-81
2021/04/12 13:12:36;;;;;;;1.95;0.30;;;8.40;70.70;;;;;;6244081;23;20039;-83
2021/04/12 13:15:40;;;;;;;5.22;0.88;;;8.40;70.70;;;;;;6242383;23;20023;-81
2021/04/12 13:19:15;;;;;;;4.60;0.60;;;8.30;70.20;;;;;;6240118;22;20347;-78
2021/04/12 13:21:58;;;;;;;4.03;0.70;;;8.30;71.30;;;;;;6202682;23;20073;-80
2021/04/12 13:25:16;;;;;;;4.00;0.70;;;8.30;71.50;;;;;;6245048;23;20023;-81
2021/04/12 13:28:08;;;;;;;4.18;0.52;;;8.30;73.10;;;;;;6229271;22;20020;-81
2021/04/12 13:31:08;;;;;;;2.92;0.60;;;8.30;73.20;;;;;;6244784;23;20031;-81
2021/04/12 13:33:47;;;;;;;2.42;0.50;;;8.30;71.00;;;;;;6244133;23;20024;-81
2021/04/12 13:36:55;;;;;;;4.93;1.35;;;8.30;69.90;;;;;;6229886;23;20016;-81
2021/04/12 13:39:57;;;;;;;3.05;1.00;;;8.30;68.90;;;;;;6244174;23;20070;-82
2021/04/12 13:42:30;;;;;;;3.80;0.80;;;8.30;69.40;;;;;;6243850;23;20050;-82
2021/04/12 13:46:01;;;;;;;6.85;0.80;;;8.30;70.20;;;;;;6244372;23;20481;-81
2021/04/12 13:48:29;;;;;;;6.03;0.93;;;8.20;72.10;;;;;;6091968;23;20093;-81
2021/04/12 13:54:57;;;;;;;3.58;0.80;;;8.30;73.70;;;;;;6082155;23;20098;-81
2021/04/12 14:01:35;;;;;;;3.00;0.60;;;8.40;73.80;;;;;;6084475;23;20018;-81
2021/04/12 14:04:55;;;;;;;;;;;;;;;;;;;;;
2021/04/12 14:08:05;;;;;;;3.38;0.70;;;8.50;73.40;;;;;;6211368;23;20088;-81
2021/04/12 14:11:00;;;;;;;3.80;0.60;;;8.40;72.60;;;;;;6215439;23;20021;-80
2021/04/12 14:13:39;;;;;;;1.27;0.40;;;8.30;71.80;;;;;;6211873;23;20052;-81
2021/04/12 14:16:19;;;;;;;2.38;0.50;;;8.30;73.10;;;;;;6215773;23;20071;-82
2021/04/12 14:19:21;;;;;;;;;;;;;;;;;;;;;
2021/04/12 14:31:51;;;;;;;3.22;0.60;;;8.30;73.70;;;;;;6244244;22;20020;-82
2021/04/12 14:44:17;;;;;;;3.90;0.60;;;8.40;74.00;;;;;;6246361;23;20073;-78
2021/04/12 14:46:58;;;;;;;3.45;0.63;;;8.50;74.50;;;;;;6246009;23;20444;-79
2021/04/12 14:53:13;;;;;;;4.30;0.70;;;8.70;73.60;;;;;;6244528;23;20026;-82
2021/04/12 14:56:25;;;;;;;6.70;0.80;;;8.70;74.30;;;;;;6246087;23;20012;-81
2021/04/12 14:59:05;;;;;;;5.07;0.52;;;8.80;74.70;;;;;;6244704;23;20103;-82
2021/04/12 15:01:56;;;;;;;5.28;0.85;;;8.80;73.50;;;;;;6246005;23;20091;-82
2021/04/12 15:04:30;;;;;;;3.15;0.60;;;8.80;74.20;;;;;;6245521;22;20016;-83
2021/04/12 15:07:16;;;;;;;1.92;0.55;;;8.90;73.70;;;;;;6245522;23;20044;-83
2021/04/12 15:09:55;;;;;;;2.83;0.70;;;8.90;74.10;;;;;;6246441;23;20035;-82
2021/04/12 15:12:28;;;;;;;4.00;0.70;;;8.90;73.40;;;;;;6244966;23;20029;-84
2021/04/12 15:15:11;;;;;;;3.90;0.60;;;8.90;73.00;;;;;;6245795;23;20063;-83
2021/04/12 15:17:46;;;;;;;4.70;0.85;;;8.90;74.00;;;;;;6246007;23;20020;-82
2021/04/12 15:20:40;;;;;;;5.03;0.82;;;9.00;75.50;;;;;;6245061;23;20039;-82
2021/04/12 15:23:36;;;;;;;3.53;0.70;;;9.10;74.80;;;;;;6215204;23;20020;-82
2021/04/12 15:26:26;;;;;;;5.68;0.90;;;9.10;75.60;;;;;;6245038;23;20018;-82
2021/04/12 15:29:13;;;;;;;2.80;0.55;;;9.20;74.90;;;;;;6245931;23;20016;-82
2021/04/12 15:31:57;;;;;;;7.05;1.20;;;9.10;74.40;;;;;;6244829;23;20091;-83
2021/04/12 15:34:36;;;;;;;4.60;0.93;;;9.20;73.90;;;;;;6244554;23;20016;-82
2021/04/12 15:37:10;;;;;;;6.10;1.13;;;9.10;74.80;;;;;;6246267;23;20023;-82
2021/04/12 15:39:38;;;;;;;3.17;0.70;;;9.10;75.00;;;;;;6246386;23;20020;-82
2021/04/12 15:42:20;;;;;;;3.08;0.60;;;9.00;73.80;;;;;;6172306;23;20044;-82